Todos
Magowra Airport YMOA Condições meteorológicas
There is no TAF data available at YMOA. Showing TAF data for YNTN (15 mi NE).
NTN Previsão da área de terminais (sem dados para YMOA)
| Date | Time (AEST) | Flight Rules | Wind Dir. | Speed | Type | Height AGL (ft) | Visibility | Remarks | ||||||
|---|---|---|---|---|---|---|---|---|---|---|---|---|---|---|
| 04-Mai | 23:00 | VFR | 230° | 5 kt | Clouds and Visibility are OK | >= 6 miles | ||||||||
| 04-Mai | 22:00 | VFR | 230° | 5 kt | Clouds and Visibility are OK | >= 6 miles | ||||||||
| 04-Mai | 21:00 | VFR | 230° | 5 kt | Clouds and Visibility are OK | >= 6 miles | ||||||||
| 04-Mai | 20:00 | VFR | 140° | 6 kt | Clouds and Visibility are OK | >= 6 miles | ||||||||
| 04-Mai | 19:00 | VFR | 140° | 6 kt | Clouds and Visibility are OK | >= 6 miles | ||||||||
| 04-Mai | 18:00 | VFR | 140° | 6 kt | Clouds and Visibility are OK | >= 6 miles | ||||||||
| 04-Mai | 17:00 | VFR | 140° | 6 kt | Clouds and Visibility are OK | >= 6 miles | ||||||||
| 04-Mai | 16:00 | VFR | 140° | 6 kt | Clouds and Visibility are OK | >= 6 miles | ||||||||
There is no METAR data available at YMOA. Showing METAR data for YNTN (15 mi NE).
Histórico recente de METAR NTN (sem dados para YMOA)
| Date | Time (AEST) | Flight Rules | Wind Dir. | Speed | Type | Height AGL (ft) | Visibility | Temp (°C) | Temp (°F) | Dew Point (°C) | Dew Point (°F) | Rel. Humid. | Pressure | Density Altitude | Remarks |
|---|---|---|---|---|---|---|---|---|---|---|---|---|---|---|---|
| 04-Mai | 16:00 | VFR | 130° | 5 kt | 10000 meters | 34° | 93° | 17° | 62° | 36% | 1010 mb | 2.448 ft | |||
| 04-Mai | 15:00 | VFR | 130° | 6 kt | 10000 meters | 33° | 91° | 16° | 60° | 36% | 1010 mb | 2.328 ft | |||
| 04-Mai | 14:00 | VFR | 110° | 5 kt | 10000 meters | 34° | 93° | 18° | 64° | 39% | 1011 mb | 2.418 ft | |||
| 04-Mai | 13:00 | VFR | 60° | 5 kt | 10000 meters | 33° | 91° | 19° | 66° | 44% | 1012 mb | 2.269 ft | |||
| 04-Mai | 12:00 | VFR | 70° | 5 kt | 10000 meters | 32° | 89° | 19° | 66° | 46% | 1012 mb | 2.149 ft | |||
| 04-Mai | 11:00 | VFR | 60° | 5 kt | 10000 meters | 30° | 86° | 19° | 66° | 52% | 1013 mb | 1.879 ft | |||
| 04-Mai | 10:00 | VFR | 70° | 7 kt | 10000 meters | 28° | 82° | 19° | 66° | 58% | 1013 mb | 1.639 ft | |||
| 04-Mai | 09:00 | VFR | 110° | 6 kt | 10000 meters | 26° | 78° | 19° | 66° | 65% | 1013 mb | 1.399 ft | |||
| 04-Mai | 08:00 | VFR | 170° | 7 kt | 10000 meters | 24° | 75° | 20° | 68° | 78% | 1013 mb | 1.159 ft | |||
| 04-Mai | 07:00 | VFR | 190° | 6 kt | 10000 meters | 22° | 71° | 21° | 69° | 94% | 1012 mb | 949 ft | |||
| 04-Mai | 06:00 | VFR | 180° | 7 kt | 10000 meters | 23° | 73° | 21° | 69° | 89% | 1011 mb | 1.098 ft | |||
| 04-Mai | 05:00 | VFR | 190° | 7 kt | 10000 meters | 23° | 73° | 21° | 69° | 89% | 1011 mb | 1.098 ft | |||
| 04-Mai | 04:00 | VFR | 210° | 6 kt | 10000 meters | 23° | 73° | 22° | 71° | 94% | 1011 mb | 1.098 ft | |||
| 04-Mai | 03:00 | VFR | 220° | 6 kt | 10000 meters | 23° | 73° | 22° | 71° | 94% | 1011 mb | 1.098 ft | |||
| 04-Mai | 02:00 | VFR | 220° | 6 kt | 10000 meters | 23° | 73° | 22° | 71° | 94% | 1011 mb | 1.098 ft | |||
| 04-Mai | 01:00 | VFR | 220° | 4 kt | 10000 meters | 23° | 73° | 21° | 69° | 89% | 1012 mb | 1.069 ft | |||
| 04-Mai | 00:00 | VFR | 260° | 3 kt | 10000 meters | 24° | 75° | 21° | 69° | 83% | 1012 mb | 1.189 ft | |||
| 03-Mai | 23:00 | VFR | 250° | 2 kt | 10000 meters | 25° | 77° | 22° | 71° | 83% | 1013 mb | 1.279 ft | |||
| 03-Mai | 22:00 | VFR | 250° | 5 kt | 10000 meters | 25° | 77° | 21° | 69° | 79% | 1013 mb | 1.279 ft | |||
| 03-Mai | 21:00 | VFR | 250° | 5 kt | 10000 meters | 26° | 78° | 21° | 69° | 74% | 1013 mb | 1.399 ft | |||
| 03-Mai | 20:00 | VFR | 270° | 5 kt | 10000 meters | 27° | 80° | 21° | 69° | 70% | 1012 mb | 1.549 ft | |||
| 03-Mai | 19:00 | VFR | 140° | 4 kt | 10000 meters | 30° | 86° | 18° | 64° | 49% | 1011 mb | 1.938 ft | |||
| 03-Mai | 18:00 | VFR | 150° | 5 kt | 10000 meters | 32° | 89° | 18° | 64° | 43% | 1011 mb | 2.178 ft | |||
| 03-Mai | 17:00 | VFR | 150° | 7 kt | 10000 meters | 34° | 93° | 17° | 62° | 36% | 1011 mb | 2.418 ft |
Entrar
| Seu navegador não suporta. atualize seu navegador |
